Retrouvez les resultats des épreuves Cycling Classics France

 
 
 
 
 
 
 
 
VEUILLEZ INDIQUER VOTRE NOM OU NUMéRO CYCLING CLASSICS FRANCE


2017 - Les 2 Alpes Granfondo - SCRATCH
RG.DOS.TEMPSCAT (RG.) POINTS
1 116SALA STEFANO 05:04:51 M (40 - 49) (1) 315.00
2 637FINO CARLO 05:08:12 M (30 - 39) (1) 315.00
3 286LODOLO JULIEN 05:10:38 M (30 - 39) (2) 313.95
4 648PIVA DIEGO 05:14:18 M (30 - 39) (3) 312.90
5 107LOURD RODOLPHE 05:14:56 M (30 - 39) (4) 311.85
6 297BRUNELLO JEREMY 05:15:57 M (30 - 39) (5) 310.80
7 185TURNES WILLIAM 05:18:01 M (40 - 49) (2) 313.95
8 109RICHARD CEDRIC 05:22:09 M (30 - 39) (6) 309.75
9 112PHANON JEROME 05:25:21 M (30 - 39) (7) 308.70
10 264GUEYDON JULIEN 05:26:25 M (18 - 29) (1) 315.00
11 284VROLIJKX BART 05:29:45 M (18 - 29) (2) 313.95
12 278OSTIAN FREDERIC 05:32:18 M (40 - 49) (3) 312.90
13 262ADRIANSENS BOB 05:33:42 M (30 - 39) (8) 307.65
14 647VERCOUTTER JONAS 05:37:58 M (18 - 29) (3) 312.90
15 273ANTSFELD LEONID 05:38:01 M (40 - 49) (4) 311.85
16 165SWINNEN RAPHAEL 05:39:42 M (30 - 39) (9) 306.60
17 285FRIGIOLINI STEPHANE 05:39:59 M (30 - 39) (10) 305.55
18 245FOCARDI FEDERICO 05:40:16 M (50 - 59) (1) 315.00
19 121CABOOR KURT 05:40:53 M (30 - 39) (11) 304.50
20 19CARPENTIER JIMMY 05:41:48 M (18 - 29) (4) 311.85
21 254CAVALLO MATTIA 05:48:13 M (18 - 29) (5) 310.80
22 125RICO HUGUES 05:48:17 M (40 - 49) (5) 310.80
23 249VERVLOESSEM RAF 05:50:56 M (40 - 49) (6) 309.75
24 658DEPLANTE PATRICE 05:55:14 M (50 - 59) (2) 313.95
25 277HAVERMANS BART 05:55:49 M (40 - 49) (7) 308.70
26 115BONNIN DAVID 05:56:14 M (40 - 49) (8) 307.65
27 45THIRY FREDERIC 06:03:47 M (40 - 49) (9) 306.60
28 246BAROTTI ENRICO 06:04:25 M (40 - 49) (10) 305.55
29 233RIENTH MARKUS 06:04:53 M (30 - 39) (12) 303.45
30 635PLIJTER DYLAN 06:05:39 M (18 - 29) (6) 309.75
31 211FAVRE VERAND JOEL 06:06:47 M (40 - 49) (11) 304.50
32 173VIAL-TISSOT MIKAëL 06:07:57 M (18 - 29) (7) 308.70
33 163JELLE VAN DER ZWAAG 06:09:14 M (40 - 49) (12) 303.45
34 271CARON SERGE 06:10:28 M (40 - 49) (13) 302.40
35 253FALZETTI MATTEO 06:13:15 M (30 - 39) (13) 302.40
36 61CORREGGIO PASCAL 06:13:32 M (50 - 59) (3) 312.90
37 99ANTHUENIS GUY 06:14:03 M (30 - 39) (14) 301.35
38 101PETERS JIM 06:14:25 M (40 - 49) (14) 301.35
39 120BECARUD THOMAS 06:17:44 M (30 - 39) (15) 300.30
40 114ARSENNE BENOIT 06:17:48 M (50 - 59) (4) 311.85
41 610STUURMAN LINDA 06:19:30 F (35 - 49) (1) 315.00
42 626BIJWAAR PAUL 06:19:57 M (50 - 59) (5) 310.80
43 268MYLKA ALINA 06:22:54 F (18 - 34) (1) 315.00
44 234BECK LORENZ 06:25:40 M (30 - 39) (16) 299.25
45 111LAURES BRUNO 06:28:52 M (40 - 49) (15) 300.30
46 150VERCAMMEN BERT 06:32:57 M (30 - 39) (17) 298.20
47 236BOURDET MAXIME 06:34:17 M (18 - 29) (8) 307.65
48 162DE GRAEVE NIELS 06:34:25 M (18 - 29) (9) 306.60
49 263GIUSEPPE VALTER PASSUELLO 06:34:47 M (60 - 66) (1) 315.00
50 625VILYN DIRK 06:37:28 M (50 - 59) (6) 309.75
51 104FALCONNET PIERRE ALAIN 06:37:58 M (40 - 49) (16) 299.25
52 668LAFLEUR MARIE 06:38:21 F (18 - 34) (2) 313.95
53 184MILLET CLEMENT 06:39:29 M (18 - 29) (10) 305.55
54 21CENTLIVRE FRANCK 06:39:35 M (30 - 39) (18) 297.15
55 16ROOSE YANNIK 06:40:09 M (40 - 49) (17) 298.20
56 97CERESA JEAN FRANCOIS 06:40:24 M (50 - 59) (7) 308.70
57 656GOSTINICCHI JEAN LUC 06:42:33 M (50 - 59) (8) 307.65
58 267DESCHAMPS DAAN 06:43:56 M (40 - 49) (18) 297.15
59 205KORVING SANDER 06:45:56 M (40 - 49) (19) 296.10
60 290BERNADAC ARTHUR 06:49:53 M (18 - 29) (11) 304.50
61 605BLOUIN PATRICK 06:50:38 M (50 - 59) (9) 306.60
62 209DRECHSLER THOMAS 06:50:43 M (50 - 59) (10) 305.55
63 140ENNEKENS GERD 06:51:08 M (30 - 39) (19) 296.10
64 283VAN HOUT KOEN 06:51:57 M (30 - 39) (20) 295.05
65 244KEYES KIRSTINE 06:53:37 F (35 - 49) (2) 313.95
66 154KORVING WOUT 06:55:18 M (40 - 49) (20) 295.05
67 657VAN DEN BOSCH TOM 06:55:31 M (30 - 39) (21) 294.00
68 661PEREIRA EDUARDO 06:56:15 M (50 - 59) (11) 304.50
69 289DEHAUDT JULIEN 06:56:54 M (30 - 39) (22) 292.95
70 164COSTAN BIEDO PAOLO 06:57:10 M (18 - 29) (12) 303.45
71 276REY PATRICE 06:57:36 M (50 - 59) (12) 303.45
72 265MARTE ANTHONY 06:57:53 M (18 - 29) (13) 302.40
73 623VERPOORT EDIAN 06:58:15 M (18 - 29) (14) 301.35
74 52JIMENEZ NOEL 06:58:55 M (60 - 66) (2) 313.95
75 14NAEGELY GUY 06:59:11 M (60 - 66) (3) 312.90
76 160BOINK GERBEN 06:59:13 M (18 - 29) (15) 300.30
77 259LARSEN MORTEN 06:59:47 M (40 - 49) (21) 294.00
78 643MAERTENS JENS 07:00:41 M (18 - 29) (16) 299.25
79 633BIJWAARD THIJS 07:00:53 M (18 - 29) (17) 298.20
80 288TINSCHERT JONAS 07:02:32 M (30 - 39) (23) 291.90
81 291GEORJON BAPTISTE 07:04:09 M (18 - 29) (18) 297.15
82 272WOODCOCK CHRISTOPHER 07:05:31 M (30 - 39) (24) 290.85
83 151VERHAEGEN DIETER 07:05:31 M (30 - 39) (25) 289.80
84 149PEPERMANS DRIES 07:05:31 M (30 - 39) (26) 288.75
85 238KEERSMAEKERS LUC 07:06:50 M (50 - 59) (13) 302.40
86 660KLENKLEN STEPHANE 07:08:13 M (40 - 49) (22) 292.95
87 242SEGUES FABIEN 07:10:37 M (30 - 39) (27) 287.70
88 167FONTANA DENIS 07:13:00 M (50 - 59) (14) 301.35
89 168WIJSHOF PETER 07:13:00 M (40 - 49) (23) 291.90
90 294ORTS SAMUEL 07:13:09 M (30 - 39) (28) 286.65
91 282KAVANAGH JUSTIN 07:14:08 M (40 - 49) (24) 290.85
92 296MILLET LOIC 07:14:29 M (30 - 39) (29) 285.60
93 32VILLANCE JULIEN 07:15:12 M (67 & +) (1) 315.00
94 73MARTIN CLAUDE 07:15:41 M (67 & +) (2) 313.95
95 158GALLIE SEBASTIAN 07:16:12 M (40 - 49) (25) 289.80
96 241DAILLIEZ BRUNO 07:16:48 M (40 - 49) (26) 288.75
97 666DELBOS LAURENT 07:17:32 M (50 - 59) (15) 300.30
98 80JOURDOIS LUDOVIC 07:18:28 M (50 - 59) (16) 299.25
99 638VERMEULEN SIMON 07:19:00 M (18 - 29) (19) 296.10
100 243JAGER FRANCK 07:19:14 M (40 - 49) (27) 287.70
101 199GAMAIN OLIVIER 07:19:41 M (30 - 39) (30) 284.55
102 193FOUQUET JAN 07:20:35 M (40 - 49) (28) 286.65
103 203GOSETTI GIORGIO 07:21:26 M (60 - 66) (4) 311.85
104 287MOISAND AURELIEN 07:21:28 M (30 - 39) (31) 283.50
105 274IMPENS JOHN 07:21:55 M (40 - 49) (29) 285.60
106 281MALARD JEAN-LUC 07:23:16 M (50 - 59) (17) 298.20
107 669MERCIER JEAN CLAUDE 07:23:59 M (67 & +) (3) 312.90
108 122CHIRON JOEL 07:24:07 M (60 - 66) (5) 310.80
109 137Toisul Roland 07:24:11 M (40 - 49) (30) 284.55
110 118SOMERS JOCHEN 07:24:39 M (30 - 39) (32) 282.45
111 667PEINKE EMANUEL 07:27:57 M (30 - 39) (33) 281.40
112 295SATTLER TOBIAS 07:27:58 M (18 - 29) (20) 295.05
113 292GEORJON PHILIPPE 07:29:32 M (40 - 49) (31) 283.50
114 250BREUILLY YVAN 07:29:48 M (67 & +) (4) 311.85
115 620BALLOTTO LUCA 07:30:14 M (50 - 59) (18) 297.15
116 646CRETS RICHARD 07:30:21 HANDISPORT (1) 315.00
117 95BENOIT CLAUDE 07:31:00 M (40 - 49) (32) 282.45
118 275BALTHAZARD JEAN 07:31:41 M (67 & +) (5) 310.80
119 255KWASNICKI WLADYSLAW 07:34:01 M (30 - 39) (34) 280.35
120 98CELERIER AGATHE 07:34:11 F (18 - 34) (3) 312.90
121 96MEMBIELLE JEAN-FRANÇOIS 07:34:11 M (40 - 49) (33) 281.40
122 208ESTRIPEAU XAVIER 07:35:17 M (18 - 29) (21) 294.00
123 102ANGST JEAN MARC 07:37:12 M (50 - 59) (19) 296.10
124 210ANNA GüELL RECAS 07:38:27 F (18 - 34) (4) 311.85
125 614DRUON MARC 07:40:11 M (50 - 59) (20) 295.05
126 188GREEN PHOENIX 07:41:41 M (18 - 29) (22) 292.95
127 670MELONI GAUTIER 07:41:46 M (30 - 39) (35) 279.30
128 105TRIVIN CAROLINE 07:42:44 F (35 - 49) (3) 312.90
129 117LINTHOUDT KRIS 07:42:47 M (40 - 49) (34) 280.35
130 299LE BOUEDEC JEAN PAUL 07:44:45 M (60 - 66) (6) 309.75
131 189DEW PAUL 07:45:07 M (18 - 29) (23) 291.90
132 239WEPPLER EZEQUIEL 07:46:06 M (40 - 49) (35) 279.30
133 148LAMBRECHTS STEVEN 07:48:39 M (30 - 39) (36) 278.25
134 665WOODING ANDREW 07:55:13 M (30 - 39) (37) 277.20
135 663RUSSIAS JACQUES 07:59:42 M (67 & +) (6) 309.75
136 240RALAINARIVO-ROLLIN TITONY 07:59:50 M (18 - 29) (24) 290.85
137 266KUNKELER EMIEL 08:02:25 M (50 - 59) (21) 294.00
138 124CHALON FRANCK 08:04:19 M (40 - 49) (36) 278.25
139 664LEMAIRE CAMILLE 08:11:00 F (18 - 34) (5) 310.80
140 280GARNIER RONAN 08:21:16 M (50 - 59) (22) 292.95
141 132VANBOSSEGHEM STIJN 08:21:31 M (40 - 49) (37) 277.20
142 22DICKHOUT JAN 08:21:57 M (67 & +) (7) 308.70
143 142TALPAERT CEDRIC 08:25:32 M (30 - 39) (38) 276.15
144 300DELPIERRE CHRISTIAN 08:30:46 M (60 - 66) (7) 308.70
145 237ENTRESANGLES MICHAEL 08:33:23 M (40 - 49) (38) 276.15
146 127POORT FRANS 08:36:46 INCONNU (1) 315.00
147 106JANSSEN KEES 08:36:47 M (40 - 49) (39) 275.10
148 56BOURSET JACQUES 08:37:25 M (60 - 66) (8) 307.65
149 293QUESADA PILAR 08:46:48 F (35 - 49) (4) 311.85
150 261ANDREATTA MICHEL 08:47:04 M (60 - 66) (9) 306.60
151 206SCHULZ MARKUS 08:50:41 M (50 - 59) (23) 291.90
152 279NAUDON THIERRY 08:53:57 M (50 - 59) (24) 290.85
153 161TARDIVEAU DANIEL 08:57:06 M (50 - 59) (25) 289.80
154 662ORLANDO MARIA 09:00:21 F (35 - 49) (5) 310.80
155 126VERLEYE LORENZO 09:06:09 M (30 - 39) (39) 275.10
156 172BAKKER MARCEL 09:10:58 M (30 - 39) (40) 274.05
157 232MESTRé SEB 09:11:31 M (30 - 39) (41) 273.00
158 257AMIEL NATACHA 09:11:52 F (35 - 49) (6) 309.75
159 170VAN DAM THIJS 09:12:14 M (50 - 59) (26) 288.75
160 169RAMAKERS MARK 09:12:14 M (40 - 49) (40) 274.05
161 258MORELLE CHARLOTTE 09:15:56 F (18 - 34) (6) 309.75
162 196HELSENS MANUEL 09:15:59 M (50 - 59) (27) 287.70
163 182BERENDS ALLARD 09:16:04 M (50 - 59) (28) 286.65


2017 - Les 2 Alpes Granfondo - RANDO
DOS.TEMPS